NFTL/HPA METAR and TAF weather

Enter ICAO airport designator
Station Type Date Time Source
NFTL METAR 2019/06/17 06:00 UTC NOAA

NFTL 170600Z 12012KT 9999 FEW017TCU BKN110 24/21 Q1014


Station Type Date Time Source
NFTL Decoded METAR 2019/06/17 06:00 UTC NOAA

Haapai, Tonga (NFTL) 19-48S 174-21W 3M
Jun 17, 2019 - 02:00 AM EDT / 2019.06.17 0600 UTC
Wind: from the ESE (120 degrees) at 14 MPH (12 KT):0
Visibility: greater than 7 mile(s):0
Sky conditions: mostly cloudy
Weather: Towering cumulus clouds observed
Temperature: 75 F (24 C)
Dew Point: 69 F (21 C)
Relative Humidity: 83%
Pressure (altimeter): 29.94 in. Hg (1014 hPa)
ob: NFTL 170600Z 12012KT 9999 FEW017TCU BKN110 24/21 Q1014
cycle: 6

Station Type Date Time Source
NFTL TAF 2018/02/21 17:19 UTC NOAA

TAF NFTL 211605Z 2117/2208 12010KT 9999 SCT018

Example: see airport list